createdAt,value
2023-11-30T00:00:30.826Z,96342.53
2023-11-30T00:02:59.074Z,96317.53
2023-11-30T00:05:25.893Z,96335.16
2023-11-30T00:07:54.210Z,96320.00
2023-11-30T00:10:21.066Z,96338.94
2023-11-30T00:12:48.876Z,96340.28
2023-11-30T00:15:16.750Z,96316.31
2023-11-30T00:17:44.886Z,96326.41
2023-11-30T00:20:13.364Z,96310.19
2023-11-30T00:22:42.959Z,96349.06
2023-11-30T00:25:12.365Z,96335.22
2023-11-30T00:27:40.380Z,96346.38
2023-11-30T00:30:08.110Z,96330.97
2023-11-30T00:32:38.416Z,96322.72
2023-11-30T00:35:05.750Z,96334.16
2023-11-30T00:37:36.686Z,96352.25
2023-11-30T00:40:07.819Z,96332.56
2023-11-30T00:42:36.209Z,96346.16
2023-11-30T00:45:06.758Z,96335.75
2023-11-30T00:47:34.791Z,96329.66
2023-11-30T00:50:02.884Z,96336.03
2023-11-30T00:52:32.098Z,96341.59
2023-11-30T00:55:00.352Z,96359.19
2023-11-30T00:57:27.181Z,96335.50
2023-11-30T00:59:56.100Z,96308.34
2023-11-30T01:02:22.940Z,96301.16
2023-11-30T01:04:50.996Z,96348.78
2023-11-30T01:07:17.800Z,96346.94
2023-11-30T01:09:47.072Z,96334.63
2023-11-30T01:12:14.122Z,96302.97
2023-11-30T01:14:42.665Z,96319.22
2023-11-30T01:17:11.494Z,96296.59
2023-11-30T01:19:40.025Z,96306.16
2023-11-30T01:22:08.143Z,96321.31
2023-11-30T01:24:37.611Z,96276.59
2023-11-30T01:27:05.929Z,96302.41
2023-11-30T01:29:33.521Z,96292.03
2023-11-30T01:32:01.337Z,96326.34
2023-11-30T01:34:29.365Z,96324.78
2023-11-30T01:36:57.504Z,96298.19
2023-11-30T01:39:34.472Z,96264.94
2023-11-30T01:42:05.607Z,96290.72
2023-11-30T01:44:36.480Z,96275.59
2023-11-30T01:47:08.045Z,96306.47
2023-11-30T01:49:35.915Z,96275.34
2023-11-30T01:52:04.578Z,96246.59
2023-11-30T01:54:32.615Z,96301.41
2023-11-30T01:57:00.912Z,96296.34
2023-11-30T01:59:29.362Z,96250.31
2023-11-30T02:01:58.229Z,96288.09
2023-11-30T02:04:29.002Z,96311.53
2023-11-30T02:06:59.389Z,96311.53
2023-11-30T02:09:27.752Z,96300.06
2023-11-30T02:11:56.462Z,96272.66
2023-11-30T02:14:25.093Z,96273.22
2023-11-30T02:16:53.168Z,96298.22
2023-11-30T02:19:21.031Z,96303.53
2023-11-30T02:21:53.225Z,96287.84
2023-11-30T02:24:20.052Z,96305.94
2023-11-30T02:26:47.959Z,96306.44
2023-11-30T02:29:16.932Z,96287.03
2023-11-30T02:31:45.065Z,96291.81
2023-11-30T02:34:11.888Z,96303.25
2023-11-30T02:36:42.743Z,96301.09
2023-11-30T02:39:09.567Z,96302.91
2023-11-30T02:41:37.526Z,96293.28
2023-11-30T02:44:05.432Z,96246.69
2023-11-30T02:46:34.617Z,96287.16
2023-11-30T02:49:02.501Z,96245.34
2023-11-30T02:51:32.838Z,96294.31
2023-11-30T02:54:00.985Z,96302.00
2023-11-30T02:56:29.284Z,96292.88
2023-11-30T02:58:57.510Z,96279.81
2023-11-30T03:01:27.830Z,96246.81
2023-11-30T03:03:56.425Z,96251.66
2023-11-30T03:06:24.472Z,96274.34
2023-11-30T03:08:52.779Z,96290.88
2023-11-30T03:11:19.587Z,96276.78
2023-11-30T03:13:49.852Z,96305.53
2023-11-30T03:16:24.860Z,96281.59
2023-11-30T03:19:06.201Z,96275.72
2023-11-30T03:21:43.582Z,96269.88
2023-11-30T03:24:10.616Z,96297.50
2023-11-30T03:26:39.136Z,96262.88
2023-11-30T03:29:07.172Z,96277.25
2023-11-30T03:31:37.635Z,96262.63
2023-11-30T03:34:07.500Z,96251.19
2023-11-30T03:36:35.873Z,96237.34
2023-11-30T03:39:05.763Z,96256.00
2023-11-30T03:41:36.354Z,96292.75
2023-11-30T03:44:07.694Z,96297.78
2023-11-30T03:46:37.096Z,96282.09
2023-11-30T03:49:07.164Z,96285.28
2023-11-30T03:51:34.977Z,96260.25
2023-11-30T03:54:02.266Z,96274.13
2023-11-30T03:56:33.776Z,96303.38
2023-11-30T03:59:01.875Z,96276.53
2023-11-30T04:01:29.949Z,96241.13
2023-11-30T04:03:58.628Z,96252.91
2023-11-30T04:06:28.527Z,96252.63
2023-11-30T04:08:56.554Z,96272.38
2023-11-30T04:11:23.345Z,96254.56
2023-11-30T04:13:51.408Z,96259.38
2023-11-30T04:16:19.043Z,96270.03
2023-11-30T04:18:47.077Z,96278.50
2023-11-30T04:21:14.872Z,96262.00
2023-11-30T04:23:42.993Z,96217.56
2023-11-30T04:26:09.905Z,96250.28
2023-11-30T04:28:37.819Z,96232.44
2023-11-30T04:31:08.662Z,96279.53
2023-11-30T04:33:39.164Z,96226.88
2023-11-30T04:36:07.594Z,96268.31
2023-11-30T04:38:38.516Z,96276.59
2023-11-30T04:41:06.996Z,96275.78
2023-11-30T04:43:37.651Z,96260.56
2023-11-30T04:46:07.013Z,96269.59
2023-11-30T04:48:36.857Z,96253.34
2023-11-30T04:51:08.088Z,96271.41
2023-11-30T04:53:35.297Z,96236.06
2023-11-30T04:56:04.924Z,96267.38
2023-11-30T04:58:33.296Z,96220.28
2023-11-30T05:01:03.671Z,96247.63
2023-11-30T05:03:32.634Z,96239.09
2023-11-30T05:06:01.082Z,96245.19
2023-11-30T05:08:27.979Z,96237.69
2023-11-30T05:10:56.188Z,96253.41
2023-11-30T05:13:24.051Z,96225.44
2023-11-30T05:15:52.041Z,96240.03
2023-11-30T05:18:19.509Z,96212.13
2023-11-30T05:20:47.905Z,96188.22
2023-11-30T05:23:14.881Z,96169.59
2023-11-30T05:25:43.599Z,96226.44
2023-11-30T05:28:10.353Z,96199.84
2023-11-30T05:30:38.584Z,96212.81
2023-11-30T05:33:05.656Z,96236.47
2023-11-30T05:35:36.105Z,96231.19
2023-11-30T05:38:05.569Z,96230.72
2023-11-30T05:40:35.067Z,96233.94
2023-11-30T05:43:03.001Z,96243.22
2023-11-30T05:45:31.021Z,96203.09
2023-11-30T05:47:59.157Z,96224.41
2023-11-30T05:50:26.342Z,96221.16
2023-11-30T05:52:54.309Z,96235.22
2023-11-30T05:55:24.871Z,96199.34
2023-11-30T05:57:51.964Z,96241.59
2023-11-30T06:00:22.266Z,96231.25
2023-11-30T06:02:50.294Z,96236.84
2023-11-30T06:05:17.898Z,96233.94
2023-11-30T06:07:46.308Z,96236.91
2023-11-30T06:10:17.667Z,96243.59
2023-11-30T06:12:46.066Z,96247.28
2023-11-30T06:15:13.102Z,96226.03
2023-11-30T06:17:43.549Z,96253.16
2023-11-30T06:20:11.877Z,96225.56
2023-11-30T06:22:44.380Z,96233.72
2023-11-30T06:25:11.542Z,96235.09
2023-11-30T06:27:39.493Z,96235.09
2023-11-30T06:30:07.255Z,96256.34
2023-11-30T06:32:35.589Z,96223.41
2023-11-30T06:35:05.296Z,96238.00
2023-11-30T06:37:34.745Z,96259.75
2023-11-30T06:40:05.302Z,96241.72
2023-11-30T06:42:33.443Z,96271.91
2023-11-30T06:45:02.436Z,96265.41
2023-11-30T06:47:30.891Z,96246.38
2023-11-30T06:49:59.193Z,96241.44
2023-11-30T06:52:26.542Z,96266.84
2023-11-30T06:54:54.890Z,96254.94
2023-11-30T06:57:23.124Z,96265.25
2023-11-30T06:59:52.816Z,96281.66
2023-11-30T07:02:19.759Z,96253.75
2023-11-30T07:04:48.722Z,96272.16
2023-11-30T07:07:24.175Z,96282.22
2023-11-30T07:10:00.275Z,96277.56
2023-11-30T07:12:28.399Z,96285.78
2023-11-30T07:14:59.006Z,96277.22
2023-11-30T07:17:27.754Z,96250.38
2023-11-30T07:19:59.038Z,96276.13
2023-11-30T07:22:26.498Z,96271.03
2023-11-30T07:24:54.909Z,96243.91
2023-11-30T07:27:24.855Z,96288.50
2023-11-30T07:29:54.956Z,96306.63
2023-11-30T07:32:21.742Z,96302.00
2023-11-30T07:34:52.141Z,96282.88
2023-11-30T07:37:19.444Z,96274.91
2023-11-30T07:39:48.947Z,96286.69
2023-11-30T07:42:26.417Z,96304.88
2023-11-30T07:45:03.718Z,96288.88
2023-11-30T07:47:32.179Z,96297.38
2023-11-30T07:49:59.190Z,96296.66
2023-11-30T07:52:28.754Z,96281.19
2023-11-30T07:54:57.040Z,96298.56
2023-11-30T07:57:24.262Z,96251.75
2023-11-30T07:59:52.643Z,96265.78
2023-11-30T08:02:19.915Z,96289.50
2023-11-30T08:04:48.445Z,96296.41
2023-11-30T08:07:15.383Z,96286.72
2023-11-30T08:09:43.441Z,96264.72
2023-11-30T08:12:10.338Z,96284.31
2023-11-30T08:14:38.445Z,96271.88
2023-11-30T08:17:09.225Z,96287.31
2023-11-30T08:19:37.219Z,96254.00
2023-11-30T08:22:07.928Z,96263.59
2023-11-30T08:24:36.100Z,96273.25
2023-11-30T08:27:04.441Z,96270.59
2023-11-30T08:29:34.922Z,96274.69
2023-11-30T08:32:05.378Z,96247.84
2023-11-30T08:34:33.323Z,96272.47
2023-11-30T08:37:01.522Z,96282.72
2023-11-30T08:39:30.299Z,96285.09
2023-11-30T08:42:00.632Z,96265.94
2023-11-30T08:44:28.687Z,96257.59
2023-11-30T08:46:56.543Z,96255.19
2023-11-30T08:49:24.021Z,96276.41
2023-11-30T08:52:02.566Z,96256.38
2023-11-30T08:54:32.949Z,96277.44
2023-11-30T08:57:00.479Z,96290.13
2023-11-30T08:59:27.657Z,96250.13
2023-11-30T09:02:03.164Z,96284.94
2023-11-30T09:04:31.366Z,96250.81
2023-11-30T09:07:08.710Z,96286.47
2023-11-30T09:09:42.008Z,96247.03
2023-11-30T09:12:15.300Z,96275.13
2023-11-30T09:14:42.212Z,96270.25
2023-11-30T09:17:14.041Z,96270.78
2023-11-30T09:19:44.300Z,96242.72
2023-11-30T09:22:11.062Z,96265.13
2023-11-30T09:24:41.628Z,96236.81
2023-11-30T09:27:10.750Z,96235.94
2023-11-30T09:29:48.289Z,96204.47
2023-11-30T09:32:19.508Z,96217.84
2023-11-30T09:34:48.972Z,96247.44
2023-11-30T09:37:16.143Z,96262.72
2023-11-30T09:39:45.180Z,96248.78
2023-11-30T09:42:17.454Z,96258.41
2023-11-30T09:44:46.157Z,96243.94
2023-11-30T09:47:13.469Z,96249.88
2023-11-30T09:49:41.519Z,96221.59
2023-11-30T09:52:09.472Z,96225.00
2023-11-30T09:54:45.935Z,96246.56
2023-11-30T09:57:13.077Z,96214.22
2023-11-30T09:59:42.824Z,96227.75
2023-11-30T10:02:13.345Z,96191.38
2023-11-30T10:04:44.518Z,96201.72
2023-11-30T10:07:12.585Z,96172.56
2023-11-30T10:09:40.068Z,96234.13
2023-11-30T10:12:10.551Z,96187.75
2023-11-30T10:14:47.349Z,96225.22
2023-11-30T10:17:14.512Z,96220.34
2023-11-30T10:19:43.223Z,96182.28
2023-11-30T10:22:11.521Z,96219.88
2023-11-30T10:24:39.655Z,96153.56
2023-11-30T10:27:11.898Z,96135.72
2023-11-30T10:29:43.390Z,96194.00
2023-11-30T10:32:14.826Z,96151.53
2023-11-30T10:34:50.386Z,96187.16
2023-11-30T10:37:25.341Z,96187.97
2023-11-30T10:39:59.686Z,96160.84
2023-11-30T10:42:26.836Z,96153.31
2023-11-30T10:45:05.223Z,96141.59
2023-11-30T10:47:33.904Z,96185.06
2023-11-30T10:50:02.782Z,96173.25
2023-11-30T10:52:30.126Z,96163.00
2023-11-30T10:55:11.937Z,96165.06
2023-11-30T10:57:47.956Z,96161.69
2023-11-30T11:00:16.863Z,96160.81
2023-11-30T11:02:49.299Z,96145.91
2023-11-30T11:05:20.314Z,96176.38
2023-11-30T11:07:53.573Z,96168.03
2023-11-30T11:10:28.349Z,96162.97
2023-11-30T11:13:03.706Z,96167.22
2023-11-30T11:15:33.378Z,96156.00
2023-11-30T11:18:05.522Z,96168.22
2023-11-30T11:20:36.362Z,96132.09
2023-11-30T11:23:10.258Z,96111.81
2023-11-30T11:25:48.291Z,96157.25
2023-11-30T11:28:18.306Z,96148.09
2023-11-30T11:30:48.947Z,96134.44
2023-11-30T11:33:18.088Z,96145.25
2023-11-30T11:35:47.713Z,96116.97
2023-11-30T11:38:15.088Z,96146.16
2023-11-30T11:40:45.615Z,96128.09
2023-11-30T11:43:12.510Z,96095.25
2023-11-30T11:45:45.067Z,96118.25
2023-11-30T11:48:15.803Z,96117.47
2023-11-30T11:50:43.905Z,96114.16
2023-11-30T11:53:10.796Z,96116.66
2023-11-30T11:55:38.693Z,96129.06
2023-11-30T11:58:08.919Z,96109.53
2023-11-30T12:00:39.090Z,96140.97
2023-11-30T12:03:09.410Z,96112.72
2023-11-30T12:05:54.007Z,96133.94
2023-11-30T12:08:36.741Z,96137.00
2023-11-30T12:11:06.161Z,96122.13
2023-11-30T12:13:39.059Z,96117.84
2023-11-30T12:16:08.717Z,96118.94
2023-11-30T12:18:36.855Z,96110.63
2023-11-30T12:21:04.876Z,96113.31
2023-11-30T12:23:32.932Z,96099.50
2023-11-30T12:26:00.999Z,96072.91
2023-11-30T12:28:30.790Z,96094.63
2023-11-30T12:31:00.982Z,96091.59
2023-11-30T12:33:27.738Z,96119.06
2023-11-30T12:35:59.882Z,96078.69
2023-11-30T12:38:29.718Z,96072.66
2023-11-30T12:40:58.387Z,96094.06
2023-11-30T12:43:32.386Z,96091.59
2023-11-30T12:46:00.898Z,96077.19
2023-11-30T12:48:31.659Z,96039.03
2023-11-30T12:50:59.842Z,96063.34
2023-11-30T12:53:27.947Z,96086.94
2023-11-30T12:55:57.874Z,96055.69
2023-11-30T12:58:27.698Z,96060.84
2023-11-30T13:00:55.360Z,96055.47
2023-11-30T13:03:22.236Z,96070.34
2023-11-30T13:06:00.214Z,96030.78
2023-11-30T13:08:27.063Z,96069.59
2023-11-30T13:10:57.989Z,96037.28
2023-11-30T13:13:34.176Z,96057.91
2023-11-30T13:16:09.201Z,96026.97
2023-11-30T13:18:38.331Z,96036.69
2023-11-30T13:21:07.817Z,96068.03
2023-11-30T13:23:35.040Z,96034.69
2023-11-30T13:26:01.893Z,96035.69
2023-11-30T13:28:37.945Z,96015.53
2023-11-30T13:31:10.498Z,96067.63
2023-11-30T13:33:39.109Z,96063.16
2023-11-30T13:36:10.240Z,96070.97
2023-11-30T13:38:38.069Z,96044.94
2023-11-30T13:41:09.438Z,96055.91
2023-11-30T13:43:39.215Z,96074.38
2023-11-30T13:46:07.388Z,96039.22
2023-11-30T13:48:35.219Z,96077.19
2023-11-30T13:51:10.619Z,96062.47
2023-11-30T13:53:48.824Z,96054.81
2023-11-30T13:56:19.784Z,96072.00
2023-11-30T13:58:47.746Z,96055.63
2023-11-30T14:01:14.884Z,96066.25
2023-11-30T14:03:45.374Z,96057.88
2023-11-30T14:06:13.720Z,96081.00
2023-11-30T14:08:42.222Z,96029.78
2023-11-30T14:11:13.399Z,96060.50
2023-11-30T14:13:47.972Z,96049.94
2023-11-30T14:16:16.129Z,96075.22
2023-11-30T14:18:44.407Z,96062.72
2023-11-30T14:21:11.396Z,96070.75
2023-11-30T14:23:39.655Z,96087.66
2023-11-30T14:26:07.144Z,96082.09
2023-11-30T14:28:36.725Z,96064.06
2023-11-30T14:31:05.141Z,96051.88
2023-11-30T14:33:33.161Z,96079.25
2023-11-30T14:36:01.554Z,96044.56
2023-11-30T14:38:59.354Z,96075.66
2023-11-30T14:41:27.802Z,96075.41
2023-11-30T14:43:56.504Z,96051.44
2023-11-30T14:46:25.052Z,96021.31
2023-11-30T14:48:52.792Z,96088.97
2023-11-30T14:51:20.820Z,96100.84
2023-11-30T14:53:49.099Z,96049.94
2023-11-30T14:56:19.356Z,96043.41
2023-11-30T14:58:47.557Z,96047.16
2023-11-30T15:01:16.144Z,96066.56
2023-11-30T15:03:44.944Z,96086.16
2023-11-30T15:06:15.464Z,96069.31
2023-11-30T15:08:44.731Z,96060.06
2023-11-30T15:11:15.296Z,96023.47
2023-11-30T15:13:45.648Z,96083.16
2023-11-30T15:16:15.133Z,96053.84
2023-11-30T15:18:43.505Z,96029.75
2023-11-30T15:21:11.805Z,96066.94
2023-11-30T15:23:40.009Z,96048.16
2023-11-30T15:26:08.244Z,96042.84
2023-11-30T15:28:36.557Z,96044.25
2023-11-30T15:31:04.985Z,96052.22
2023-11-30T15:33:33.192Z,96048.22
2023-11-30T15:36:09.874Z,96055.81
2023-11-30T15:38:40.205Z,96055.47
2023-11-30T15:41:09.894Z,96075.16
2023-11-30T15:43:38.891Z,96044.34
2023-11-30T15:46:09.298Z,96075.16
2023-11-30T15:48:37.736Z,96038.56
2023-11-30T15:51:05.129Z,96061.88
2023-11-30T15:56:05.697Z,96075.13
2023-11-30T15:58:33.690Z,96043.66
2023-11-30T16:01:01.900Z,96078.72
2023-11-30T16:03:30.521Z,96078.50
2023-11-30T16:05:58.678Z,96048.56
2023-11-30T16:08:28.043Z,96023.34
2023-11-30T16:10:57.455Z,96030.38
2023-11-30T16:13:27.500Z,96057.19
2023-11-30T16:15:57.811Z,96044.66
2023-11-30T16:18:28.028Z,96067.00
2023-11-30T16:20:55.885Z,95984.75
2023-11-30T16:23:23.216Z,96054.22
2023-11-30T16:25:51.060Z,96020.28
2023-11-30T16:28:20.709Z,96012.06
2023-11-30T16:30:50.458Z,96026.09
2023-11-30T16:33:19.733Z,96057.19
2023-11-30T16:35:50.918Z,96045.81
2023-11-30T16:38:20.255Z,96034.34
2023-11-30T16:40:50.484Z,96025.91
2023-11-30T16:43:21.052Z,95990.63
2023-11-30T16:45:48.437Z,96017.63
2023-11-30T16:48:26.463Z,96012.56
2023-11-30T16:50:59.098Z,96027.06
2023-11-30T16:53:29.809Z,95983.28
2023-11-30T16:56:12.183Z,96026.22
2023-11-30T16:58:39.948Z,96016.09
2023-11-30T17:01:09.473Z,96013.97
2023-11-30T17:03:38.076Z,95949.31
2023-11-30T17:06:06.474Z,95983.03
2023-11-30T17:08:37.278Z,96021.53
2023-11-30T17:11:05.755Z,95993.63
2023-11-30T17:13:34.027Z,96000.00
2023-11-30T17:16:02.563Z,95991.25
2023-11-30T17:18:35.598Z,96007.56
2023-11-30T17:21:05.348Z,95982.13
2023-11-30T17:23:33.927Z,96016.03
2023-11-30T17:26:02.927Z,95942.88
2023-11-30T17:28:32.234Z,96026.22
2023-11-30T17:31:03.427Z,96017.78
2023-11-30T17:33:31.782Z,96009.81
2023-11-30T17:35:59.787Z,95963.59
2023-11-30T17:38:30.104Z,95953.00
2023-11-30T17:40:58.580Z,96007.09
2023-11-30T17:43:28.869Z,95974.22
2023-11-30T17:45:58.241Z,95972.84
2023-11-30T17:48:28.457Z,95999.63
2023-11-30T17:50:59.809Z,95965.06
2023-11-30T17:53:30.349Z,96008.28
2023-11-30T17:55:58.481Z,95984.19
2023-11-30T17:58:30.544Z,96002.72
2023-11-30T18:00:58.548Z,95981.38
2023-11-30T18:03:27.933Z,95980.03
2023-11-30T18:05:58.965Z,95949.88
2023-11-30T18:08:34.869Z,95990.09
2023-11-30T18:11:05.639Z,95972.31
2023-11-30T18:13:33.433Z,95986.41
2023-11-30T18:16:06.472Z,96002.69
2023-11-30T18:18:35.076Z,95978.34
2023-11-30T18:21:03.803Z,95957.47
2023-11-30T18:23:32.046Z,95964.66
2023-11-30T18:25:59.075Z,95980.59
2023-11-30T18:28:25.947Z,95985.81
2023-11-30T18:31:01.769Z,95957.88
2023-11-30T18:33:40.058Z,95974.28
2023-11-30T18:36:09.196Z,95974.50
2023-11-30T18:38:44.042Z,95977.69
2023-11-30T18:41:18.318Z,95934.44
2023-11-30T18:43:48.635Z,95929.44
2023-11-30T18:46:16.826Z,95968.94
2023-11-30T18:48:44.877Z,95951.59
2023-11-30T18:51:17.667Z,95955.59
2023-11-30T18:53:45.924Z,95917.81
2023-11-30T18:56:14.123Z,95925.09
2023-11-30T18:58:45.685Z,95928.09
2023-11-30T19:01:16.893Z,95893.94
2023-11-30T19:03:45.030Z,95901.19
2023-11-30T19:06:20.802Z,95942.50
2023-11-30T19:08:50.224Z,95952.34
2023-11-30T19:11:19.030Z,95933.00
2023-11-30T19:13:45.860Z,95953.72
2023-11-30T19:16:18.337Z,95972.38
2023-11-30T19:18:46.113Z,95946.28
2023-11-30T19:21:14.416Z,95934.16
2023-11-30T19:23:45.094Z,95946.88
2023-11-30T19:26:13.970Z,95929.34
2023-11-30T19:28:44.372Z,95997.16
2023-11-30T19:31:12.632Z,95919.81
2023-11-30T19:33:40.893Z,96007.41
2023-11-30T19:36:09.985Z,95977.25
2023-11-30T19:38:37.772Z,96000.28
2023-11-30T19:41:06.116Z,95943.00
2023-11-30T19:43:34.249Z,95914.03
2023-11-30T19:46:03.629Z,95923.72
2023-11-30T19:48:35.223Z,95923.16
2023-11-30T19:51:03.453Z,95913.41
2023-11-30T19:53:34.538Z,95920.06
2023-11-30T19:56:05.011Z,95930.09
2023-11-30T19:58:42.446Z,95933.59
2023-11-30T20:01:11.105Z,95906.31
2023-11-30T20:03:40.072Z,95898.34
2023-11-30T20:06:18.282Z,95951.59
2023-11-30T20:08:46.281Z,95914.72
2023-11-30T20:11:25.592Z,95909.63
2023-11-30T20:13:56.469Z,95935.56
2023-11-30T20:16:24.555Z,95917.47
2023-11-30T20:18:52.811Z,95864.56
2023-11-30T20:21:22.885Z,95857.19
2023-11-30T20:23:51.296Z,95858.78
2023-11-30T20:26:19.633Z,95889.59
2023-11-30T20:28:48.543Z,95889.47
2023-11-30T20:31:16.697Z,95915.72
2023-11-30T20:33:51.653Z,95915.06
2023-11-30T20:36:19.627Z,95913.69
2023-11-30T20:38:47.869Z,95922.00
2023-11-30T20:41:15.870Z,95907.63
2023-11-30T20:43:44.590Z,95920.78
2023-11-30T20:46:21.873Z,95928.47
2023-11-30T20:48:50.306Z,95923.75
2023-11-30T20:51:27.127Z,95876.81
2023-11-30T20:53:55.856Z,95860.72
2023-11-30T20:56:24.166Z,95881.84
2023-11-30T20:58:52.586Z,95907.84
2023-11-30T21:01:20.702Z,95913.50
2023-11-30T21:03:48.837Z,95934.44
2023-11-30T21:06:17.014Z,95935.81
2023-11-30T21:08:47.894Z,95914.25
2023-11-30T21:11:15.855Z,95923.56
2023-11-30T21:13:44.006Z,95890.06
2023-11-30T21:16:19.914Z,95927.84
2023-11-30T21:18:51.556Z,95947.25
2023-11-30T21:21:19.690Z,95939.63
2023-11-30T21:23:47.977Z,95914.97
2023-11-30T21:26:16.066Z,95923.81
2023-11-30T21:28:42.897Z,95892.81
2023-11-30T21:31:10.931Z,95930.97
2023-11-30T21:33:38.039Z,95887.09
2023-11-30T21:36:06.894Z,95902.06
2023-11-30T21:38:36.049Z,95913.91
2023-11-30T21:41:04.113Z,95894.81
2023-11-30T21:43:32.265Z,95865.84
2023-11-30T21:46:00.335Z,95915.88
2023-11-30T21:48:28.605Z,95917.22
2023-11-30T21:50:56.154Z,95925.44
2023-11-30T21:53:24.118Z,95920.03
2023-11-30T21:55:52.339Z,95901.66
2023-11-30T21:58:28.789Z,95932.72
2023-11-30T22:00:58.365Z,95936.69
2023-11-30T22:03:36.367Z,95889.31
2023-11-30T22:06:04.793Z,95939.94
2023-11-30T22:08:34.484Z,95895.06
2023-11-30T22:11:02.814Z,95938.09
2023-11-30T22:13:30.784Z,95906.03
2023-11-30T22:16:06.834Z,95886.47
2023-11-30T22:18:39.301Z,95921.09
2023-11-30T22:21:07.912Z,95881.53
2023-11-30T22:23:35.653Z,95897.16
2023-11-30T22:26:06.288Z,95907.81
2023-11-30T22:28:34.375Z,95934.31
2023-11-30T22:31:02.838Z,95891.34
2023-11-30T22:33:31.100Z,95889.81
2023-11-30T22:35:59.260Z,95908.69
2023-11-30T22:38:31.142Z,95932.75
2023-11-30T22:41:03.721Z,95918.22
2023-11-30T22:43:32.049Z,95876.28
2023-11-30T22:45:59.982Z,95908.53
2023-11-30T22:48:29.302Z,95937.91
2023-11-30T22:50:57.571Z,95919.09
2023-11-30T22:53:26.632Z,95898.63
2023-11-30T22:55:55.117Z,95922.19
2023-11-30T22:58:24.669Z,95925.66
2023-11-30T23:00:55.132Z,95947.19
2023-11-30T23:03:24.034Z,95933.38
2023-11-30T23:05:52.137Z,95897.88
2023-11-30T23:08:20.291Z,95873.50
2023-11-30T23:10:48.954Z,95934.03
2023-11-30T23:13:19.436Z,95920.28
2023-11-30T23:15:46.373Z,95861.72
2023-11-30T23:18:15.098Z,95914.22
2023-11-30T23:20:41.897Z,95850.13
2023-11-30T23:23:11.006Z,95892.25
2023-11-30T23:25:37.828Z,95900.91
2023-11-30T23:28:06.421Z,95904.06
2023-11-30T23:30:34.637Z,95919.63
2023-11-30T23:33:01.684Z,95879.63
2023-11-30T23:35:29.713Z,95891.72
2023-11-30T23:37:59.116Z,95905.44
2023-11-30T23:40:27.503Z,95884.41
2023-11-30T23:42:58.701Z,95891.25
2023-11-30T23:45:29.671Z,95876.06
2023-11-30T23:47:57.881Z,95904.03
2023-11-30T23:50:26.378Z,95898.78
2023-11-30T23:52:54.449Z,95891.06
2023-11-30T23:55:22.903Z,95916.16
2023-11-30T23:57:49.795Z,95882.53
